Terminal Aerodrome Forecast
Issued by NWS Cleveland, OH

Home | Current Version | Previous Version | Graphics & Text | Print | Product List | Glossary On
Versions: 1 2 3 4 5 6 7 8 9 10 11 12 13 14 15
000
FTUS41 KCLE 220525
TAFYNG
TAF
KYNG 220525Z 2206/2306 30010G18KT P6SM -SHRA OVC012
      TEMPO 2206/2207 5SM -SHRASN OVC007
     FM220700 30010KT 4SM -SHSN OVC012
      TEMPO 2207/2210 2SM -SN OVC007
     FM221000 31010KT P6SM OVC020
     FM221200 31008KT P6SM BKN035
     FM222200 VRB06KT P6SM SCT250=

USA.gov is the U.S. government's official web portal to all federal, state and local government web resources and services.